sensor_id;sensor_type;location;lat;lon;timestamp;temperature;humidity
45096;DHT22;30858;51.108;8.068;2023-01-08T00:00:57;8.80;99.90
45096;DHT22;30858;51.108;8.068;2023-01-08T00:03:23;8.90;99.90
45096;DHT22;30858;51.108;8.068;2023-01-08T00:05:49;8.90;99.90
45096;DHT22;30858;51.108;8.068;2023-01-08T00:08:15;8.90;99.90
45096;DHT22;30858;51.108;8.068;2023-01-08T00:10:40;8.90;99.90
45096;DHT22;30858;51.108;8.068;2023-01-08T00:13:06;8.90;99.90
45096;DHT22;30858;51.108;8.068;2023-01-08T00:15:32;9.00;99.90
45096;DHT22;30858;51.108;8.068;2023-01-08T00:17:58;9.00;99.90
45096;DHT22;30858;51.108;8.068;2023-01-08T00:20:24;9.10;99.90
45096;DHT22;30858;51.108;8.068;2023-01-08T00:22:50;9.10;99.90
45096;DHT22;30858;51.108;8.068;2023-01-08T00:25:17;9.10;99.90
45096;DHT22;30858;51.108;8.068;2023-01-08T00:27:43;9.10;99.90
45096;DHT22;30858;51.108;8.068;2023-01-08T00:30:09;9.10;99.90
45096;DHT22;30858;51.108;8.068;2023-01-08T00:32:35;9.10;99.90
45096;DHT22;30858;51.108;8.068;2023-01-08T00:35:00;9.10;99.90
45096;DHT22;30858;51.108;8.068;2023-01-08T00:37:26;9.10;99.90
45096;DHT22;30858;51.108;8.068;2023-01-08T00:39:52;9.10;99.90
45096;DHT22;30858;51.108;8.068;2023-01-08T00:42:18;9.20;99.90
45096;DHT22;30858;51.108;8.068;2023-01-08T00:44:43;9.20;99.90
45096;DHT22;30858;51.108;8.068;2023-01-08T00:47:09;9.20;99.90
45096;DHT22;30858;51.108;8.068;2023-01-08T00:49:35;9.20;99.90
45096;DHT22;30858;51.108;8.068;2023-01-08T00:52:00;9.20;99.90
45096;DHT22;30858;51.108;8.068;2023-01-08T00:54:26;9.10;99.90
45096;DHT22;30858;51.108;8.068;2023-01-08T00:56:54;9.10;99.90
45096;DHT22;30858;51.108;8.068;2023-01-08T00:59:20;9.10;99.90
45096;DHT22;30858;51.108;8.068;2023-01-08T01:01:46;9.10;99.90
45096;DHT22;30858;51.108;8.068;2023-01-08T01:04:12;9.10;99.90
45096;DHT22;30858;51.108;8.068;2023-01-08T01:06:39;9.10;99.90
45096;DHT22;30858;51.108;8.068;2023-01-08T01:09:05;9.10;99.90
45096;DHT22;30858;51.108;8.068;2023-01-08T01:11:30;9.10;99.90
45096;DHT22;30858;51.108;8.068;2023-01-08T01:13:56;9.10;99.90
45096;DHT22;30858;51.108;8.068;2023-01-08T01:16:22;9.10;99.90
45096;DHT22;30858;51.108;8.068;2023-01-08T01:18:48;9.10;99.90
45096;DHT22;30858;51.108;8.068;2023-01-08T01:21:28;9.00;99.90
45096;DHT22;30858;51.108;8.068;2023-01-08T01:23:56;9.10;99.90
45096;DHT22;30858;51.108;8.068;2023-01-08T01:26:22;9.10;99.90
45096;DHT22;30858;51.108;8.068;2023-01-08T01:28:50;9.00;99.90
45096;DHT22;30858;51.108;8.068;2023-01-08T01:31:16;9.00;99.90
45096;DHT22;30858;51.108;8.068;2023-01-08T01:33:43;9.00;99.90
45096;DHT22;30858;51.108;8.068;2023-01-08T01:36:10;8.90;99.90
45096;DHT22;30858;51.108;8.068;2023-01-08T01:38:36;8.90;99.90
45096;DHT22;30858;51.108;8.068;2023-01-08T01:41:02;8.90;99.90
45096;DHT22;30858;51.108;8.068;2023-01-08T01:43:42;8.90;99.90
45096;DHT22;30858;51.108;8.068;2023-01-08T01:46:19;8.90;99.90
45096;DHT22;30858;51.108;8.068;2023-01-08T01:48:50;8.90;99.90
45096;DHT22;30858;51.108;8.068;2023-01-08T01:51:16;8.90;99.90
45096;DHT22;30858;51.108;8.068;2023-01-08T01:53:42;8.90;99.90
45096;DHT22;30858;51.108;8.068;2023-01-08T01:56:08;8.90;99.90
45096;DHT22;30858;51.108;8.068;2023-01-08T01:58:35;8.90;99.90
45096;DHT22;30858;51.108;8.068;2023-01-08T02:01:03;8.90;99.90
45096;DHT22;30858;51.108;8.068;2023-01-08T02:03:33;8.90;99.90
45096;DHT22;30858;51.108;8.068;2023-01-08T02:06:07;8.90;99.90
45096;DHT22;30858;51.108;8.068;2023-01-08T02:11:21;8.90;99.90
45096;DHT22;30858;51.108;8.068;2023-01-08T02:14:05;8.80;99.90
45096;DHT22;30858;51.108;8.068;2023-01-08T02:16:53;8.80;99.90
45096;DHT22;30858;51.108;8.068;2023-01-08T02:19:44;8.80;99.90
45096;DHT22;30858;51.108;8.068;2023-01-08T02:25:10;8.80;99.90
45096;DHT22;30858;51.108;8.068;2023-01-08T02:27:42;8.70;99.90
45096;DHT22;30858;51.108;8.068;2023-01-08T02:30:09;8.80;99.90
45096;DHT22;30858;51.108;8.068;2023-01-08T02:32:39;8.80;99.90
45096;DHT22;30858;51.108;8.068;2023-01-08T02:35:06;8.80;99.90
45096;DHT22;30858;51.108;8.068;2023-01-08T02:37:33;8.70;99.90
45096;DHT22;30858;51.108;8.068;2023-01-08T02:43:05;8.60;99.90
45096;DHT22;30858;51.108;8.068;2023-01-08T02:48:13;8.70;99.90
45096;DHT22;30858;51.108;8.068;2023-01-08T02:51:07;8.70;99.90
45096;DHT22;30858;51.108;8.068;2023-01-08T02:53:39;8.60;99.90
45096;DHT22;30858;51.108;8.068;2023-01-08T02:56:10;8.60;99.90
45096;DHT22;30858;51.108;8.068;2023-01-08T02:58:37;8.60;99.90
45096;DHT22;30858;51.108;8.068;2023-01-08T03:01:06;8.60;99.90
45096;DHT22;30858;51.108;8.068;2023-01-08T03:03:32;8.60;99.90
45096;DHT22;30858;51.108;8.068;2023-01-08T03:06:08;8.60;99.90
45096;DHT22;30858;51.108;8.068;2023-01-08T03:08:38;8.60;99.90
45096;DHT22;30858;51.108;8.068;2023-01-08T03:11:07;8.60;99.90
45096;DHT22;30858;51.108;8.068;2023-01-08T03:13:37;8.60;99.90
45096;DHT22;30858;51.108;8.068;2023-01-08T03:16:05;8.60;99.90
45096;DHT22;30858;51.108;8.068;2023-01-08T03:18:36;8.60;99.90
45096;DHT22;30858;51.108;8.068;2023-01-08T03:21:04;8.60;99.90
45096;DHT22;30858;51.108;8.068;2023-01-08T03:23:33;8.60;99.90
45096;DHT22;30858;51.108;8.068;2023-01-08T03:26:01;8.60;99.90
45096;DHT22;30858;51.108;8.068;2023-01-08T03:28:33;8.60;99.90
45096;DHT22;30858;51.108;8.068;2023-01-08T03:31:02;8.60;99.90
45096;DHT22;30858;51.108;8.068;2023-01-08T03:33:29;8.60;99.90
45096;DHT22;30858;51.108;8.068;2023-01-08T03:35:57;8.60;99.90
45096;DHT22;30858;51.108;8.068;2023-01-08T03:38:26;8.60;99.90
45096;DHT22;30858;51.108;8.068;2023-01-08T03:40:56;8.60;99.90
45096;DHT22;30858;51.108;8.068;2023-01-08T03:43:24;8.60;99.90
45096;DHT22;30858;51.108;8.068;2023-01-08T03:45:53;8.60;99.90
45096;DHT22;30858;51.108;8.068;2023-01-08T03:48:21;8.60;99.90
45096;DHT22;30858;51.108;8.068;2023-01-08T03:50:48;8.60;99.90
45096;DHT22;30858;51.108;8.068;2023-01-08T03:53:14;8.70;99.90
45096;DHT22;30858;51.108;8.068;2023-01-08T03:55:39;8.70;99.90
45096;DHT22;30858;51.108;8.068;2023-01-08T03:58:05;8.70;99.90
45096;DHT22;30858;51.108;8.068;2023-01-08T04:00:31;8.70;99.90
45096;DHT22;30858;51.108;8.068;2023-01-08T04:02:56;8.70;99.90
45096;DHT22;30858;51.108;8.068;2023-01-08T04:05:22;8.70;99.90
45096;DHT22;30858;51.108;8.068;2023-01-08T04:07:47;8.70;99.90
45096;DHT22;30858;51.108;8.068;2023-01-08T04:10:13;8.70;99.90
45096;DHT22;30858;51.108;8.068;2023-01-08T04:12:43;8.70;99.90
45096;DHT22;30858;51.108;8.068;2023-01-08T04:15:09;8.60;99.90
45096;DHT22;30858;51.108;8.068;2023-01-08T04:17:34;8.70;99.90
45096;DHT22;30858;51.108;8.068;2023-01-08T04:20:00;8.70;99.90
45096;DHT22;30858;51.108;8.068;2023-01-08T04:22:25;8.70;99.90
45096;DHT22;30858;51.108;8.068;2023-01-08T04:24:51;8.60;99.90
45096;DHT22;30858;51.108;8.068;2023-01-08T04:27:16;8.60;99.90
45096;DHT22;30858;51.108;8.068;2023-01-08T04:29:42;8.60;99.90
45096;DHT22;30858;51.108;8.068;2023-01-08T04:32:07;8.60;99.90
45096;DHT22;30858;51.108;8.068;2023-01-08T04:34:33;8.70;99.90
45096;DHT22;30858;51.108;8.068;2023-01-08T04:36:58;8.60;99.90
45096;DHT22;30858;51.108;8.068;2023-01-08T04:39:24;8.60;99.90
45096;DHT22;30858;51.108;8.068;2023-01-08T04:41:49;8.60;99.90
45096;DHT22;30858;51.108;8.068;2023-01-08T04:44:15;8.60;99.90
45096;DHT22;30858;51.108;8.068;2023-01-08T04:46:40;8.60;99.90
45096;DHT22;30858;51.108;8.068;2023-01-08T04:49:06;8.60;99.90
45096;DHT22;30858;51.108;8.068;2023-01-08T04:51:32;8.60;99.90
45096;DHT22;30858;51.108;8.068;2023-01-08T04:53:57;8.70;99.90
45096;DHT22;30858;51.108;8.068;2023-01-08T04:56:23;8.60;99.90
45096;DHT22;30858;51.108;8.068;2023-01-08T04:58:48;8.60;99.90
45096;DHT22;30858;51.108;8.068;2023-01-08T05:01:19;8.60;99.90
45096;DHT22;30858;51.108;8.068;2023-01-08T05:03:46;8.50;99.90
45096;DHT22;30858;51.108;8.068;2023-01-08T05:06:11;8.50;99.90
45096;DHT22;30858;51.108;8.068;2023-01-08T05:08:37;8.50;99.90
45096;DHT22;30858;51.108;8.068;2023-01-08T05:11:03;8.40;99.90
45096;DHT22;30858;51.108;8.068;2023-01-08T05:13:29;8.30;99.90
45096;DHT22;30858;51.108;8.068;2023-01-08T05:15:58;8.30;99.90
45096;DHT22;30858;51.108;8.068;2023-01-08T05:18:24;8.40;99.90
45096;DHT22;30858;51.108;8.068;2023-01-08T05:20:50;8.40;99.90
45096;DHT22;30858;51.108;8.068;2023-01-08T05:23:15;8.40;99.90
45096;DHT22;30858;51.108;8.068;2023-01-08T05:25:41;8.50;99.90
45096;DHT22;30858;51.108;8.068;2023-01-08T05:28:06;8.60;99.90
45096;DHT22;30858;51.108;8.068;2023-01-08T05:30:32;8.50;99.90
45096;DHT22;30858;51.108;8.068;2023-01-08T05:32:57;8.60;99.90
45096;DHT22;30858;51.108;8.068;2023-01-08T05:35:23;8.60;99.90
45096;DHT22;30858;51.108;8.068;2023-01-08T05:37:48;8.50;99.90
45096;DHT22;30858;51.108;8.068;2023-01-08T05:40:14;8.50;99.90
45096;DHT22;30858;51.108;8.068;2023-01-08T05:42:39;8.60;99.90
45096;DHT22;30858;51.108;8.068;2023-01-08T05:45:06;8.60;99.90
45096;DHT22;30858;51.108;8.068;2023-01-08T05:47:32;8.60;99.90
45096;DHT22;30858;51.108;8.068;2023-01-08T05:49:58;8.50;99.90
45096;DHT22;30858;51.108;8.068;2023-01-08T05:52:24;8.50;99.90
45096;DHT22;30858;51.108;8.068;2023-01-08T05:54:49;8.40;99.90
45096;DHT22;30858;51.108;8.068;2023-01-08T05:57:15;8.40;99.90
45096;DHT22;30858;51.108;8.068;2023-01-08T05:59:40;8.30;99.90
45096;DHT22;30858;51.108;8.068;2023-01-08T06:02:07;8.30;99.90
45096;DHT22;30858;51.108;8.068;2023-01-08T06:04:33;8.30;99.90
45096;DHT22;30858;51.108;8.068;2023-01-08T06:06:58;8.30;99.90
45096;DHT22;30858;51.108;8.068;2023-01-08T06:09:24;8.30;99.90
45096;DHT22;30858;51.108;8.068;2023-01-08T06:11:49;8.40;99.90
45096;DHT22;30858;51.108;8.068;2023-01-08T06:14:16;8.40;99.90
45096;DHT22;30858;51.108;8.068;2023-01-08T06:16:44;8.40;99.90
45096;DHT22;30858;51.108;8.068;2023-01-08T06:19:10;8.40;99.90
45096;DHT22;30858;51.108;8.068;2023-01-08T06:21:37;8.40;99.90
45096;DHT22;30858;51.108;8.068;2023-01-08T06:24:03;8.40;99.90
45096;DHT22;30858;51.108;8.068;2023-01-08T06:26:28;8.40;99.90
45096;DHT22;30858;51.108;8.068;2023-01-08T06:28:54;8.50;99.90
45096;DHT22;30858;51.108;8.068;2023-01-08T06:31:19;8.50;99.90
45096;DHT22;30858;51.108;8.068;2023-01-08T06:33:45;8.50;99.90
45096;DHT22;30858;51.108;8.068;2023-01-08T06:36:10;8.50;99.90
45096;DHT22;30858;51.108;8.068;2023-01-08T06:38:36;8.40;99.90
45096;DHT22;30858;51.108;8.068;2023-01-08T06:41:03;8.40;99.90
45096;DHT22;30858;51.108;8.068;2023-01-08T06:43:30;8.30;99.90
45096;DHT22;30858;51.108;8.068;2023-01-08T06:45:57;8.30;99.90
45096;DHT22;30858;51.108;8.068;2023-01-08T06:48:23;8.30;99.90
45096;DHT22;30858;51.108;8.068;2023-01-08T06:50:49;8.30;99.90
45096;DHT22;30858;51.108;8.068;2023-01-08T06:53:15;8.40;99.90
45096;DHT22;30858;51.108;8.068;2023-01-08T06:55:40;8.40;99.90
45096;DHT22;30858;51.108;8.068;2023-01-08T06:58:06;8.40;99.90
45096;DHT22;30858;51.108;8.068;2023-01-08T07:00:31;8.40;99.90
45096;DHT22;30858;51.108;8.068;2023-01-08T07:02:57;8.30;99.90
45096;DHT22;30858;51.108;8.068;2023-01-08T07:05:23;8.40;99.90
45096;DHT22;30858;51.108;8.068;2023-01-08T07:07:48;8.40;99.90
45096;DHT22;30858;51.108;8.068;2023-01-08T07:10:14;8.40;99.90
45096;DHT22;30858;51.108;8.068;2023-01-08T07:12:39;8.30;99.90
45096;DHT22;30858;51.108;8.068;2023-01-08T07:15:06;8.30;99.90
45096;DHT22;30858;51.108;8.068;2023-01-08T07:17:32;8.40;99.90
45096;DHT22;30858;51.108;8.068;2023-01-08T07:19:58;8.40;99.90
45096;DHT22;30858;51.108;8.068;2023-01-08T07:22:23;8.40;99.90
45096;DHT22;30858;51.108;8.068;2023-01-08T07:24:53;8.40;99.90
45096;DHT22;30858;51.108;8.068;2023-01-08T07:27:18;8.30;99.90
45096;DHT22;30858;51.108;8.068;2023-01-08T07:29:44;8.30;99.90
45096;DHT22;30858;51.108;8.068;2023-01-08T07:32:10;8.30;99.90
45096;DHT22;30858;51.108;8.068;2023-01-08T07:34:35;8.30;99.90
45096;DHT22;30858;51.108;8.068;2023-01-08T07:37:01;8.30;99.90
45096;DHT22;30858;51.108;8.068;2023-01-08T07:39:27;8.30;99.90
45096;DHT22;30858;51.108;8.068;2023-01-08T07:41:52;8.20;99.90
45096;DHT22;30858;51.108;8.068;2023-01-08T07:44:18;8.20;99.90
45096;DHT22;30858;51.108;8.068;2023-01-08T07:46:43;8.20;99.90
45096;DHT22;30858;51.108;8.068;2023-01-08T07:49:10;8.20;99.90
45096;DHT22;30858;51.108;8.068;2023-01-08T07:51:36;8.20;99.90
45096;DHT22;30858;51.108;8.068;2023-01-08T07:54:01;8.30;99.90
45096;DHT22;30858;51.108;8.068;2023-01-08T07:56:27;8.10;99.90
45096;DHT22;30858;51.108;8.068;2023-01-08T07:58:52;8.20;99.90
45096;DHT22;30858;51.108;8.068;2023-01-08T08:01:18;8.20;99.90
45096;DHT22;30858;51.108;8.068;2023-01-08T08:03:43;8.20;99.90
45096;DHT22;30858;51.108;8.068;2023-01-08T08:06:09;8.30;99.90
45096;DHT22;30858;51.108;8.068;2023-01-08T08:08:35;8.30;99.90
45096;DHT22;30858;51.108;8.068;2023-01-08T08:11:01;8.30;99.90
45096;DHT22;30858;51.108;8.068;2023-01-08T08:13:26;8.30;99.90
45096;DHT22;30858;51.108;8.068;2023-01-08T08:15:52;8.20;99.90
45096;DHT22;30858;51.108;8.068;2023-01-08T08:18:18;8.20;99.90
45096;DHT22;30858;51.108;8.068;2023-01-08T08:20:43;8.30;99.90
45096;DHT22;30858;51.108;8.068;2023-01-08T08:23:11;8.30;99.90
45096;DHT22;30858;51.108;8.068;2023-01-08T08:25:38;8.30;99.90
45096;DHT22;30858;51.108;8.068;2023-01-08T08:28:05;8.30;99.90
45096;DHT22;30858;51.108;8.068;2023-01-08T08:30:32;8.30;99.90
45096;DHT22;30858;51.108;8.068;2023-01-08T08:32:59;8.30;99.90
45096;DHT22;30858;51.108;8.068;2023-01-08T08:35:25;8.20;99.90
45096;DHT22;30858;51.108;8.068;2023-01-08T08:37:52;8.30;99.90
45096;DHT22;30858;51.108;8.068;2023-01-08T08:40:18;8.30;99.90
45096;DHT22;30858;51.108;8.068;2023-01-08T08:42:43;8.30;99.90
45096;DHT22;30858;51.108;8.068;2023-01-08T08:45:09;8.40;99.90
45096;DHT22;30858;51.108;8.068;2023-01-08T08:47:34;8.40;99.90
45096;DHT22;30858;51.108;8.068;2023-01-08T08:50:00;8.40;99.90
45096;DHT22;30858;51.108;8.068;2023-01-08T08:52:26;8.40;99.90
45096;DHT22;30858;51.108;8.068;2023-01-08T08:54:52;8.30;99.90
45096;DHT22;30858;51.108;8.068;2023-01-08T08:57:17;8.40;99.90
45096;DHT22;30858;51.108;8.068;2023-01-08T08:59:43;8.40;99.90
45096;DHT22;30858;51.108;8.068;2023-01-08T09:02:10;8.40;99.90
45096;DHT22;30858;51.108;8.068;2023-01-08T09:04:36;8.30;99.90
45096;DHT22;30858;51.108;8.068;2023-01-08T09:07:01;8.40;99.90
45096;DHT22;30858;51.108;8.068;2023-01-08T09:09:27;8.40;99.90
45096;DHT22;30858;51.108;8.068;2023-01-08T09:11:53;8.40;99.90
45096;DHT22;30858;51.108;8.068;2023-01-08T09:14:19;8.40;99.90
45096;DHT22;30858;51.108;8.068;2023-01-08T09:16:45;8.40;99.90
45096;DHT22;30858;51.108;8.068;2023-01-08T09:19:11;8.40;99.90
45096;DHT22;30858;51.108;8.068;2023-01-08T09:21:36;8.30;99.90
45096;DHT22;30858;51.108;8.068;2023-01-08T09:24:02;8.40;99.90
45096;DHT22;30858;51.108;8.068;2023-01-08T09:26:28;8.40;99.90
45096;DHT22;30858;51.108;8.068;2023-01-08T09:28:56;8.40;99.90
45096;DHT22;30858;51.108;8.068;2023-01-08T09:31:22;8.40;99.90
45096;DHT22;30858;51.108;8.068;2023-01-08T09:33:48;8.50;99.90
45096;DHT22;30858;51.108;8.068;2023-01-08T09:36:14;8.50;99.90
45096;DHT22;30858;51.108;8.068;2023-01-08T09:38:39;8.60;99.90
45096;DHT22;30858;51.108;8.068;2023-01-08T09:41:09;8.70;99.90
45096;DHT22;30858;51.108;8.068;2023-01-08T09:43:37;8.60;99.90
45096;DHT22;30858;51.108;8.068;2023-01-08T09:46:08;8.70;99.90
45096;DHT22;30858;51.108;8.068;2023-01-08T09:48:36;8.60;99.90
45096;DHT22;30858;51.108;8.068;2023-01-08T09:51:02;8.60;99.90
45096;DHT22;30858;51.108;8.068;2023-01-08T09:53:28;8.60;99.90
45096;DHT22;30858;51.108;8.068;2023-01-08T09:56:09;8.60;99.90
45096;DHT22;30858;51.108;8.068;2023-01-08T09:58:39;8.60;99.90
45096;DHT22;30858;51.108;8.068;2023-01-08T10:01:06;8.60;99.90
45096;DHT22;30858;51.108;8.068;2023-01-08T10:03:42;8.70;99.90
45096;DHT22;30858;51.108;8.068;2023-01-08T10:06:11;8.80;99.90
45096;DHT22;30858;51.108;8.068;2023-01-08T10:08:38;8.70;99.90
45096;DHT22;30858;51.108;8.068;2023-01-08T10:11:04;8.70;99.90
45096;DHT22;30858;51.108;8.068;2023-01-08T10:13:31;8.70;99.90
45096;DHT22;30858;51.108;8.068;2023-01-08T10:15:57;8.80;99.90
45096;DHT22;30858;51.108;8.068;2023-01-08T10:18:25;9.00;99.90
45096;DHT22;30858;51.108;8.068;2023-01-08T10:20:51;9.00;99.90
45096;DHT22;30858;51.108;8.068;2023-01-08T10:23:19;9.10;99.90
45096;DHT22;30858;51.108;8.068;2023-01-08T10:25:57;9.20;99.90
45096;DHT22;30858;51.108;8.068;2023-01-08T10:28:32;9.10;99.90
45096;DHT22;30858;51.108;8.068;2023-01-08T10:31:09;9.20;99.90
45096;DHT22;30858;51.108;8.068;2023-01-08T10:33:44;9.10;99.90
45096;DHT22;30858;51.108;8.068;2023-01-08T10:36:22;9.20;99.90
45096;DHT22;30858;51.108;8.068;2023-01-08T10:38:52;9.30;99.90
45096;DHT22;30858;51.108;8.068;2023-01-08T10:41:20;9.30;99.90
45096;DHT22;30858;51.108;8.068;2023-01-08T10:43:54;9.30;99.90
45096;DHT22;30858;51.108;8.068;2023-01-08T10:46:47;9.30;99.90
45096;DHT22;30858;51.108;8.068;2023-01-08T10:49:36;9.40;99.90
45096;DHT22;30858;51.108;8.068;2023-01-08T10:52:03;9.30;99.90
45096;DHT22;30858;51.108;8.068;2023-01-08T10:54:35;9.20;99.90
45096;DHT22;30858;51.108;8.068;2023-01-08T10:57:01;9.20;99.90
45096;DHT22;30858;51.108;8.068;2023-01-08T10:59:27;9.20;99.90
45096;DHT22;30858;51.108;8.068;2023-01-08T11:01:55;9.20;99.90
45096;DHT22;30858;51.108;8.068;2023-01-08T11:04:30;9.20;99.90
45096;DHT22;30858;51.108;8.068;2023-01-08T11:07:00;9.20;99.90
45096;DHT22;30858;51.108;8.068;2023-01-08T11:09:30;9.20;99.90
45096;DHT22;30858;51.108;8.068;2023-01-08T11:11:56;9.20;99.90
45096;DHT22;30858;51.108;8.068;2023-01-08T11:14:29;9.20;99.90
45096;DHT22;30858;51.108;8.068;2023-01-08T11:16:56;9.20;99.90
45096;DHT22;30858;51.108;8.068;2023-01-08T11:19:28;9.20;99.90
45096;DHT22;30858;51.108;8.068;2023-01-08T11:21:59;9.20;99.90
45096;DHT22;30858;51.108;8.068;2023-01-08T11:24:26;9.20;99.90
45096;DHT22;30858;51.108;8.068;2023-01-08T11:27:14;9.20;99.90
45096;DHT22;30858;51.108;8.068;2023-01-08T11:35:14;9.10;99.90
45096;DHT22;30858;51.108;8.068;2023-01-08T11:37:56;9.10;99.90
45096;DHT22;30858;51.108;8.068;2023-01-08T11:40:38;9.10;99.90
45096;DHT22;30858;51.108;8.068;2023-01-08T11:48:45;9.20;99.90
45096;DHT22;30858;51.108;8.068;2023-01-08T12:00:01;9.20;99.90
45096;DHT22;30858;51.108;8.068;2023-01-08T12:02:45;9.30;99.90
45096;DHT22;30858;51.108;8.068;2023-01-08T12:10:53;9.00;99.90
45096;DHT22;30858;51.108;8.068;2023-01-08T12:13:40;9.00;99.90
45096;DHT22;30858;51.108;8.068;2023-01-08T12:16:18;9.10;99.90
45096;DHT22;30858;51.108;8.068;2023-01-08T12:24:50;9.00;99.90
45096;DHT22;30858;51.108;8.068;2023-01-08T12:27:29;8.90;99.90
45096;DHT22;30858;51.108;8.068;2023-01-08T12:30:15;8.90;99.90
45096;DHT22;30858;51.108;8.068;2023-01-08T12:32:46;8.90;99.90
45096;DHT22;30858;51.108;8.068;2023-01-08T12:35:29;8.90;99.90
45096;DHT22;30858;51.108;8.068;2023-01-08T12:38:03;8.90;99.90
45096;DHT22;30858;51.108;8.068;2023-01-08T12:40:36;9.00;99.90
45096;DHT22;30858;51.108;8.068;2023-01-08T12:43:10;9.10;99.90
45096;DHT22;30858;51.108;8.068;2023-01-08T12:45:45;9.20;99.90
45096;DHT22;30858;51.108;8.068;2023-01-08T12:48:22;9.30;99.90
45096;DHT22;30858;51.108;8.068;2023-01-08T12:51:03;9.30;99.90
45096;DHT22;30858;51.108;8.068;2023-01-08T12:53:40;9.30;99.90
45096;DHT22;30858;51.108;8.068;2023-01-08T12:59:17;9.20;99.90
45096;DHT22;30858;51.108;8.068;2023-01-08T13:02:01;9.10;99.90
45096;DHT22;30858;51.108;8.068;2023-01-08T13:04:46;9.10;99.90
45096;DHT22;30858;51.108;8.068;2023-01-08T13:07:27;9.10;99.90
45096;DHT22;30858;51.108;8.068;2023-01-08T13:09:56;9.00;99.90
45096;DHT22;30858;51.108;8.068;2023-01-08T13:12:32;8.90;99.90
45096;DHT22;30858;51.108;8.068;2023-01-08T13:14:58;8.90;99.90
45096;DHT22;30858;51.108;8.068;2023-01-08T13:17:24;8.80;99.90
45096;DHT22;30858;51.108;8.068;2023-01-08T13:19:53;8.80;99.90
45096;DHT22;30858;51.108;8.068;2023-01-08T13:22:36;8.80;99.90
45096;DHT22;30858;51.108;8.068;2023-01-08T13:27:40;8.70;99.90
45096;DHT22;30858;51.108;8.068;2023-01-08T13:30:40;8.70;99.90
45096;DHT22;30858;51.108;8.068;2023-01-08T13:33:41;8.80;99.90
45096;DHT22;30858;51.108;8.068;2023-01-08T13:36:17;8.80;99.90
45096;DHT22;30858;51.108;8.068;2023-01-08T13:38:46;8.80;99.90
45096;DHT22;30858;51.108;8.068;2023-01-08T13:41:43;8.80;99.90
45096;DHT22;30858;51.108;8.068;2023-01-08T13:44:25;8.80;99.90
45096;DHT22;30858;51.108;8.068;2023-01-08T13:46:57;8.70;99.90
45096;DHT22;30858;51.108;8.068;2023-01-08T13:49:33;8.80;99.90
45096;DHT22;30858;51.108;8.068;2023-01-08T13:51:59;8.90;99.90
45096;DHT22;30858;51.108;8.068;2023-01-08T13:54:35;8.80;99.90
45096;DHT22;30858;51.108;8.068;2023-01-08T13:57:11;8.90;99.90
45096;DHT22;30858;51.108;8.068;2023-01-08T13:59:38;8.90;99.90
45096;DHT22;30858;51.108;8.068;2023-01-08T14:02:23;8.90;99.90
45096;DHT22;30858;51.108;8.068;2023-01-08T14:04:49;8.90;99.90
45096;DHT22;30858;51.108;8.068;2023-01-08T14:07:16;8.80;99.90
45096;DHT22;30858;51.108;8.068;2023-01-08T14:09:41;8.70;99.90
45096;DHT22;30858;51.108;8.068;2023-01-08T14:12:11;8.80;99.90
45096;DHT22;30858;51.108;8.068;2023-01-08T14:14:39;8.80;99.90
45096;DHT22;30858;51.108;8.068;2023-01-08T14:17:14;8.80;99.90
45096;DHT22;30858;51.108;8.068;2023-01-08T14:19:41;8.70;99.90
45096;DHT22;30858;51.108;8.068;2023-01-08T14:22:13;8.70;99.90
45096;DHT22;30858;51.108;8.068;2023-01-08T14:24:42;8.60;99.90
45096;DHT22;30858;51.108;8.068;2023-01-08T14:27:25;8.60;99.90
45096;DHT22;30858;51.108;8.068;2023-01-08T14:29:51;8.50;99.90
45096;DHT22;30858;51.108;8.068;2023-01-08T14:32:21;8.50;99.90
45096;DHT22;30858;51.108;8.068;2023-01-08T14:34:48;8.50;99.90
45096;DHT22;30858;51.108;8.068;2023-01-08T14:37:15;8.40;99.90
45096;DHT22;30858;51.108;8.068;2023-01-08T14:39:42;8.40;99.90
45096;DHT22;30858;51.108;8.068;2023-01-08T14:42:32;8.40;99.90
45096;DHT22;30858;51.108;8.068;2023-01-08T14:45:29;8.30;99.90
45096;DHT22;30858;51.108;8.068;2023-01-08T14:47:59;8.30;99.90
45096;DHT22;30858;51.108;8.068;2023-01-08T14:50:28;8.20;99.90
45096;DHT22;30858;51.108;8.068;2023-01-08T14:55:35;8.20;99.90
45096;DHT22;30858;51.108;8.068;2023-01-08T14:58:02;8.20;99.90
45096;DHT22;30858;51.108;8.068;2023-01-08T15:00:29;8.20;99.90
45096;DHT22;30858;51.108;8.068;2023-01-08T15:02:55;8.20;99.90
45096;DHT22;30858;51.108;8.068;2023-01-08T15:05:29;8.10;99.90
45096;DHT22;30858;51.108;8.068;2023-01-08T15:08:18;8.10;99.90
45096;DHT22;30858;51.108;8.068;2023-01-08T15:11:00;8.20;99.90
45096;DHT22;30858;51.108;8.068;2023-01-08T15:13:34;8.20;99.90
45096;DHT22;30858;51.108;8.068;2023-01-08T15:16:13;8.10;99.90
45096;DHT22;30858;51.108;8.068;2023-01-08T15:18:50;8.20;99.90
45096;DHT22;30858;51.108;8.068;2023-01-08T15:21:20;8.20;99.90
45096;DHT22;30858;51.108;8.068;2023-01-08T15:23:51;8.20;99.90
45096;DHT22;30858;51.108;8.068;2023-01-08T15:26:19;8.20;99.90
45096;DHT22;30858;51.108;8.068;2023-01-08T15:28:50;8.20;99.90
45096;DHT22;30858;51.108;8.068;2023-01-08T15:31:27;8.20;99.90
45096;DHT22;30858;51.108;8.068;2023-01-08T15:33:55;8.20;99.90
45096;DHT22;30858;51.108;8.068;2023-01-08T15:36:21;8.20;99.90
45096;DHT22;30858;51.108;8.068;2023-01-08T15:38:47;8.20;99.90
45096;DHT22;30858;51.108;8.068;2023-01-08T15:41:16;8.20;99.90
45096;DHT22;30858;51.108;8.068;2023-01-08T15:44:02;8.20;99.90
45096;DHT22;30858;51.108;8.068;2023-01-08T15:46:28;8.20;99.90
45096;DHT22;30858;51.108;8.068;2023-01-08T15:48:54;8.20;99.90
45096;DHT22;30858;51.108;8.068;2023-01-08T15:51:19;8.20;99.90
45096;DHT22;30858;51.108;8.068;2023-01-08T15:53:45;8.20;99.90
45096;DHT22;30858;51.108;8.068;2023-01-08T15:56:10;8.10;99.90
45096;DHT22;30858;51.108;8.068;2023-01-08T15:58:36;8.00;99.90
45096;DHT22;30858;51.108;8.068;2023-01-08T16:01:01;8.00;99.90
45096;DHT22;30858;51.108;8.068;2023-01-08T16:03:27;8.00;99.90
45096;DHT22;30858;51.108;8.068;2023-01-08T16:05:54;8.00;99.90
45096;DHT22;30858;51.108;8.068;2023-01-08T16:08:20;8.00;99.90
45096;DHT22;30858;51.108;8.068;2023-01-08T16:10:53;8.00;99.90
45096;DHT22;30858;51.108;8.068;2023-01-08T16:13:18;8.00;99.90
45096;DHT22;30858;51.108;8.068;2023-01-08T16:15:44;7.90;99.90
45096;DHT22;30858;51.108;8.068;2023-01-08T16:18:10;7.90;99.90
45096;DHT22;30858;51.108;8.068;2023-01-08T16:20:36;7.90;99.90
45096;DHT22;30858;51.108;8.068;2023-01-08T16:23:02;7.90;99.90
45096;DHT22;30858;51.108;8.068;2023-01-08T16:25:28;7.90;99.90
45096;DHT22;30858;51.108;8.068;2023-01-08T16:27:55;7.90;99.90
45096;DHT22;30858;51.108;8.068;2023-01-08T16:30:21;7.80;99.90
45096;DHT22;30858;51.108;8.068;2023-01-08T16:32:51;7.80;99.90
45096;DHT22;30858;51.108;8.068;2023-01-08T16:35:18;7.90;99.90
45096;DHT22;30858;51.108;8.068;2023-01-08T16:37:43;7.90;99.90
45096;DHT22;30858;51.108;8.068;2023-01-08T16:40:09;7.90;99.90
45096;DHT22;30858;51.108;8.068;2023-01-08T16:42:36;7.90;99.90
45096;DHT22;30858;51.108;8.068;2023-01-08T16:45:01;8.00;99.90
45096;DHT22;30858;51.108;8.068;2023-01-08T16:47:27;8.00;99.90